Time;durP1;ratioP1;P1;durP2;ratioP2;P2;SDS_P1;SDS_P2;PMS_P1;PMS_P2;Temp;Humidity;BMP_temperature;BMP_pressure;BME280_temperature;BME280_humidity;BME280_pressure;Samples;Min_cycle;Max_cycle;Signal;HPM_P1;HPM_P2
2024/02/24 00:01:44;;;;;;;7.72;2.30;;;;;;;1.14;100.00;97080.34;5047234;28;20033;-58
2024/02/24 00:04:09;;;;;;;5.20;1.88;;;;;;;1.18;100.00;97068.28;5046209;28;20538;-58
2024/02/24 00:06:35;;;;;;;2.40;1.27;;;;;;;1.23;100.00;97065.88;5047233;28;20057;-59
2024/02/24 00:09:00;;;;;;;2.63;1.48;;;;;;;1.34;100.00;97072.56;5044718;28;20404;-59
2024/02/24 00:11:25;;;;;;;3.38;1.10;;;;;;;1.58;100.00;97069.56;5048750;28;20064;-58
2024/02/24 00:13:51;;;;;;;3.78;1.48;;;;;;;1.74;100.00;97060.50;5050347;28;20052;-58
2024/02/24 00:16:16;;;;;;;7.00;1.80;;;;;;;1.87;100.00;97057.13;5050173;28;20036;-58
2024/02/24 00:18:41;;;;;;;4.38;1.90;;;;;;;1.96;100.00;97064.81;5049691;28;20036;-58
2024/02/24 00:21:07;;;;;;;6.25;1.73;;;;;;;1.96;100.00;97067.47;5054858;28;20387;-58
2024/02/24 00:23:32;;;;;;;5.63;1.55;;;;;;;1.91;100.00;97053.91;5054838;28;20452;-58
2024/02/24 00:25:57;;;;;;;2.90;1.35;;;;;;;1.83;100.00;97066.50;5054591;28;20029;-58
2024/02/24 00:28:23;;;;;;;2.72;1.17;;;;;;;1.79;100.00;97068.75;5052624;28;20074;-58
2024/02/24 00:30:48;;;;;;;3.70;1.50;;;;;;;1.72;100.00;97065.19;5033863;28;20522;-58
2024/02/24 00:33:13;;;;;;;4.00;1.40;;;;;;;1.82;100.00;97052.38;5054416;28;20472;-58
2024/02/24 00:35:40;;;;;;;3.33;1.45;;;;;;;1.87;100.00;97057.94;5052861;28;20027;-58
2024/02/24 00:38:05;;;;;;;4.93;1.48;;;;;;;1.93;100.00;97057.16;5047406;28;20017;-58
2024/02/24 00:40:31;;;;;;;5.47;1.40;;;;;;;2.06;100.00;97068.97;5059068;28;20029;-58
2024/02/24 00:42:56;;;;;;;4.20;1.73;;;;;;;2.09;100.00;97064.06;5051070;28;20021;-58
2024/02/24 00:45:21;;;;;;;5.75;1.45;;;;;;;2.11;100.00;97066.56;5055458;28;20040;-58
2024/02/24 00:47:47;;;;;;;4.68;1.48;;;;;;;2.11;100.00;97058.56;5049230;28;20025;-58
2024/02/24 00:50:12;;;;;;;2.83;0.90;;;;;;;2.27;100.00;97066.28;5054228;28;20025;-58
2024/02/24 00:52:38;;;;;;;2.88;1.10;;;;;;;2.34;100.00;97050.34;5052575;28;20059;-58
2024/02/24 00:55:03;;;;;;;3.10;1.20;;;;;;;2.40;100.00;97053.03;5050611;28;20025;-58
2024/02/24 00:57:28;;;;;;;5.03;1.40;;;;;;;2.45;100.00;97049.78;5051235;28;20377;-58
2024/02/24 00:59:55;;;;;;;2.75;1.40;;;;;;;2.53;100.00;97040.81;5056988;28;20029;-58
2024/02/24 01:02:20;;;;;;;6.78;1.33;;;;;;;2.64;100.00;97040.25;5053233;28;20028;-58
2024/02/24 01:04:48;;;;;;;2.17;1.27;;;;;;;2.66;100.00;97043.56;5053811;28;20028;-58
2024/02/24 01:07:15;;;;;;;3.97;1.40;;;;;;;2.52;100.00;97039.16;5046065;28;20385;-58
2024/02/24 01:09:41;;;;;;;6.38;1.52;;;;;;;2.56;100.00;97056.41;5049666;28;20029;-58
2024/02/24 01:12:06;;;;;;;3.40;1.40;;;;;;;2.28;100.00;97049.25;5054155;28;20024;-58
2024/02/24 01:14:32;;;;;;;4.90;1.45;;;;;;;2.07;100.00;97049.28;5055090;28;20392;-58
2024/02/24 01:16:57;;;;;;;5.93;1.67;;;;;;;1.79;100.00;97051.94;5046202;28;20070;-58
2024/02/24 01:19:23;;;;;;;3.25;1.30;;;;;;;1.60;100.00;97069.34;5051448;28;20055;-58
2024/02/24 01:21:48;;;;;;;6.20;1.55;;;;;;;1.35;100.00;97052.91;5052810;28;20043;-59
2024/02/24 01:24:14;;;;;;;3.00;1.30;;;;;;;1.54;100.00;97069.09;5052084;28;20111;-58
2024/02/24 01:26:39;;;;;;;5.78;1.45;;;;;;;1.62;100.00;97059.34;5051570;28;20611;-61
2024/02/24 01:29:05;;;;;;;3.47;1.20;;;;;;;1.82;100.00;97071.03;5051526;28;20035;-60
2024/02/24 01:31:31;;;;;;;7.03;1.00;;;;;;;1.77;100.00;97070.78;5051821;28;20388;-60
2024/02/24 01:33:56;;;;;;;4.28;1.33;;;;;;;1.77;100.00;97076.09;5053762;28;20024;-60
2024/02/24 01:36:21;;;;;;;4.63;1.50;;;;;;;1.74;100.00;97071.97;5030980;28;20464;-61
2024/02/24 01:38:47;;;;;;;2.80;1.20;;;;;;;1.69;100.00;97070.91;5051217;28;20029;-61
2024/02/24 01:41:12;;;;;;;3.13;1.30;;;;;;;1.81;100.00;97077.38;5052205;28;20461;-60
2024/02/24 01:43:38;;;;;;;3.08;1.08;;;;;;;2.01;100.00;97076.72;5052506;28;20082;-61
2024/02/24 01:46:05;;;;;;;5.53;1.20;;;;;;;2.23;100.00;97070.38;5053440;28;20035;-60
2024/02/24 01:48:32;;;;;;;6.47;1.20;;;;;;;2.39;100.00;97055.91;5047297;28;20028;-60
2024/02/24 01:50:58;;;;;;;3.25;1.17;;;;;;;2.55;100.00;97066.28;5053704;28;20033;-60
2024/02/24 01:53:25;;;;;;;5.13;1.27;;;;;;;2.70;100.00;97063.50;5049845;28;20036;-61
2024/02/24 01:55:51;;;;;;;5.88;1.17;;;;;;;2.78;100.00;97076.69;5050074;28;20107;-61
2024/02/24 01:58:20;;;;;;;3.67;1.20;;;;;;;2.80;100.00;97069.31;5051257;28;20028;-61
2024/02/24 02:00:46;;;;;;;2.58;1.17;;;;;;;2.77;100.00;97071.53;5052233;28;20047;-60
2024/02/24 02:03:12;;;;;;;4.60;1.17;;;;;;;2.73;100.00;97078.31;5057516;28;20074;-60
2024/02/24 02:05:38;;;;;;;2.90;1.15;;;;;;;2.69;100.00;97079.72;5050976;28;20428;-61
2024/02/24 02:08:04;;;;;;;3.10;1.48;;;;;;;2.75;100.00;97086.94;5041456;28;20032;-61
2024/02/24 02:10:51;;;;;;;2.00;1.00;;;;;;;2.84;100.00;97091.94;5049885;28;20372;-59
2024/02/24 02:13:16;;;;;;;4.07;1.30;;;;;;;2.88;100.00;97080.84;5034651;28;20468;-58
2024/02/24 02:15:42;;;;;;;3.47;1.05;;;;;;;2.93;100.00;97075.75;5049280;28;20020;-58
2024/02/24 02:18:08;;;;;;;4.38;1.58;;;;;;;2.96;100.00;97083.34;5047578;28;20021;-58
2024/02/24 02:20:33;;;;;;;4.47;1.20;;;;;;;3.05;100.00;97095.53;5049529;28;20039;-58
2024/02/24 02:22:59;;;;;;;3.17;1.10;;;;;;;3.07;100.00;97096.19;5049604;28;20025;-59
2024/02/24 02:25:26;;;;;;;3.00;1.10;;;;;;;3.21;100.00;97091.72;5051114;28;20024;-59
2024/02/24 02:27:51;;;;;;;3.80;1.13;;;;;;;3.24;100.00;97094.78;5048643;28;20055;-59
2024/02/24 02:30:16;;;;;;;2.05;1.02;;;;;;;3.25;100.00;97093.78;5030874;28;20037;-59
2024/02/24 02:32:42;;;;;;;5.38;0.90;;;;;;;3.25;100.00;97085.78;5051402;28;20016;-58
2024/02/24 02:35:09;;;;;;;3.30;1.20;;;;;;;3.33;100.00;97097.28;5053025;28;20020;-58
2024/02/24 02:37:35;;;;;;;5.10;1.10;;;;;;;3.38;100.00;97097.53;5048287;28;20021;-58
2024/02/24 02:40:06;;;;;;;3.08;1.10;;;;;;;3.47;100.00;97094.47;5049575;28;20039;-59
2024/02/24 02:42:31;;;;;;;4.55;1.52;;;;;;;3.46;100.00;97086.69;5048413;28;20112;-58
2024/02/24 02:44:57;;;;;;;2.50;1.15;;;;;;;3.43;100.00;97089.72;5051574;28;20119;-58
2024/02/24 02:47:22;;;;;;;4.88;1.42;;;;;;;3.36;100.00;97089.72;5045692;28;20104;-58
2024/02/24 02:49:47;;;;;;;6.72;1.38;;;;;;;3.31;100.00;97102.03;5046846;28;20025;-58
2024/02/24 02:52:13;;;;;;;1.92;1.10;;;;;;;3.17;100.00;97098.47;5047280;28;20083;-58
2024/02/24 02:54:38;;;;;;;2.85;1.58;;;;;;;3.00;100.00;97097.97;5052367;28;20039;-58
2024/02/24 02:59:39;;;;;;;3.30;1.00;;;;;;;2.89;100.00;97091.34;5058244;28;20033;-77
2024/02/24 03:02:04;;;;;;;3.08;1.20;;;;;;;2.75;100.00;97081.59;5061914;28;20044;-77
2024/02/24 03:04:29;;;;;;;4.45;1.27;;;;;;;2.94;100.00;97112.13;5041375;28;20192;-77
2024/02/24 03:06:55;;;;;;;3.22;1.35;;;;;;;2.90;100.00;97111.69;5053938;28;20055;-77
2024/02/24 03:09:20;;;;;;;2.63;1.30;;;;;;;2.80;100.00;97105.88;5027267;28;20040;-77
2024/02/24 03:11:45;;;;;;;2.55;1.20;;;;;;;2.66;100.00;97088.94;5029333;28;20072;-77
2024/02/24 03:14:10;;;;;;;2.67;1.13;;;;;;;2.49;100.00;97059.06;5039579;28;20277;-76
2024/02/24 03:16:36;;;;;;;5.03;1.48;;;;;;;2.57;100.00;97087.47;5054573;28;20064;-77
2024/02/24 03:19:02;;;;;;;3.17;1.40;;;;;;;2.50;100.00;97102.59;5027039;28;20037;-76
2024/02/24 03:21:32;;;;;;;5.00;1.52;;;;;;;2.43;100.00;97115.88;5028727;28;20025;-76
2024/02/24 03:24:01;;;;;;;2.53;1.20;;;;;;;2.38;100.00;97120.97;5031391;28;20084;-75
2024/02/24 03:26:27;;;;;;;2.50;1.30;;;;;;;2.27;100.00;97108.16;5041378;28;20051;-77
2024/02/24 03:28:52;;;;;;;3.03;1.40;;;;;;;2.15;100.00;97114.00;5036179;28;20272;-77
2024/02/24 03:31:17;;;;;;;4.22;1.25;;;;;;;2.27;100.00;97124.97;5029867;28;20029;-78
2024/02/24 03:33:43;;;;;;;4.22;1.48;;;;;;;2.25;100.00;97112.84;5031993;28;20239;-77
2024/02/24 03:36:13;;;;;;;2.85;1.13;;;;;;;2.15;100.00;97098.00;5032196;28;20029;-77
2024/02/24 03:38:38;;;;;;;3.42;1.33;;;;;;;2.40;100.00;97116.25;5037415;28;20084;-77
2024/02/24 03:41:04;;;;;;;4.10;1.30;;;;;;;2.53;100.00;97094.19;5029096;28;20029;-77
2024/02/24 03:43:29;;;;;;;2.28;1.33;;;;;;;2.59;100.00;97072.03;5037568;28;20278;-77
2024/02/24 03:45:54;;;;;;;2.75;1.38;;;;;;;2.74;100.00;97079.94;5030565;28;20049;-77
2024/02/24 03:48:19;;;;;;;4.30;1.33;;;;;;;2.82;100.00;97077.13;5048618;28;20022;-78
2024/02/24 03:50:45;;;;;;;2.00;1.30;;;;;;;2.82;100.00;97067.25;5046320;28;20033;-78
2024/02/24 03:53:10;;;;;;;4.40;2.10;;;;;;;2.88;100.00;97065.63;5033881;28;20355;-78
2024/02/24 03:55:35;;;;;;;3.85;1.80;;;;;;;2.94;100.00;97098.78;5035099;28;20021;-78
2024/02/24 03:58:00;;;;;;;4.18;1.60;;;;;;;2.97;100.00;97106.38;5051111;28;20032;-77
2024/02/24 04:00:26;;;;;;;3.58;1.33;;;;;;;2.94;100.00;97107.59;5042667;28;20036;-77
2024/02/24 04:02:51;;;;;;;5.32;1.67;;;;;;;2.72;100.00;97100.69;5054586;28;20102;-77
2024/02/24 04:05:16;;;;;;;2.33;1.35;;;;;;;2.61;100.00;97091.38;5042053;28;20028;-77
2024/02/24 04:07:42;;;;;;;4.28;1.70;;;;;;;2.59;100.00;97107.59;5035456;28;20426;-77
2024/02/24 04:10:07;;;;;;;2.35;1.25;;;;;;;2.59;100.00;97114.75;5029389;28;20333;-78
2024/02/24 04:12:32;;;;;;;1.88;1.20;;;;;;;2.44;100.00;97090.00;5045588;28;20017;-77
2024/02/24 04:14:58;;;;;;;2.50;1.13;;;;;;;2.46;100.00;97109.31;5034281;28;20027;-75
2024/02/24 04:17:23;;;;;;;3.05;1.17;;;;;;;2.30;100.00;97100.56;5048382;28;20033;-77
2024/02/24 04:19:48;;;;;;;8.23;1.20;;;;;;;2.11;100.00;97086.06;5044893;28;20044;-77
2024/02/24 04:22:13;;;;;;;4.68;1.20;;;;;;;2.18;100.00;97118.16;5039386;28;20284;-77
2024/02/24 04:24:40;;;;;;;2.85;1.30;;;;;;;2.21;100.00;97132.94;5036973;28;20035;-77
2024/02/24 04:27:05;;;;;;;5.72;1.30;;;;;;;2.04;100.00;97117.16;5034334;28;20318;-77
2024/02/24 04:29:30;;;;;;;7.22;2.10;;;;;;;2.01;100.00;97127.41;5045438;28;20092;-77
2024/02/24 04:31:56;;;;;;;9.05;1.70;;;;;;;1.93;100.00;97139.03;5039374;28;20017;-77
2024/02/24 04:34:21;;;;;;;5.03;1.45;;;;;;;1.83;100.00;97127.84;5036195;28;20029;-77
2024/02/24 04:36:46;;;;;;;4.53;1.67;;;;;;;1.72;100.00;97115.84;5035841;28;20028;-78
2024/02/24 04:39:12;;;;;;;3.83;1.60;;;;;;;1.86;100.00;97144.31;5037793;28;20060;-77
2024/02/24 04:41:37;;;;;;;3.58;1.35;;;;;;;1.98;100.00;97152.63;5027361;28;20026;-75
2024/02/24 04:44:02;;;;;;;5.30;1.90;;;;;;;1.86;100.00;97135.47;5030101;28;20025;-77
2024/02/24 04:46:28;;;;;;;3.65;1.30;;;;;;;1.94;100.00;97146.84;5032129;28;20033;-77
2024/02/24 04:48:54;;;;;;;3.95;1.42;;;;;;;2.00;100.00;97152.44;5028175;28;20043;-78
2024/02/24 04:51:20;;;;;;;2.40;1.02;;;;;;;2.05;100.00;97145.53;5040649;28;20029;-77
2024/02/24 04:53:46;;;;;;;3.17;1.00;;;;;;;2.23;100.00;97161.09;5037246;28;20062;-77
2024/02/24 04:56:14;;;;;;;2.38;1.10;;;;;;;2.21;100.00;97144.44;5026443;28;20021;-77
2024/02/24 04:58:40;;;;;;;2.60;1.23;;;;;;;2.24;100.00;97140.56;5051430;28;20048;-77
2024/02/24 05:01:05;;;;;;;4.15;1.30;;;;;;;2.40;100.00;97170.47;5034362;28;20020;-77
2024/02/24 05:03:30;;;;;;;2.05;0.88;;;;;;;2.26;100.00;97138.53;5049388;28;20056;-77
2024/02/24 05:05:55;;;;;;;2.53;1.13;;;;;;;2.43;100.00;97155.91;5027590;28;20033;-81
2024/02/24 05:08:22;;;;;;;2.38;1.17;;;;;;;2.48;100.00;97172.16;5029701;28;20024;-83
2024/02/24 05:10:47;;;;;;;2.70;1.20;;;;;;;2.65;100.00;97178.06;5027398;28;20029;-81
2024/02/24 05:13:13;;;;;;;2.20;1.00;;;;;;;2.62;100.00;97175.81;5057245;28;20029;-80
2024/02/24 05:15:38;;;;;;;2.38;1.00;;;;;;;2.50;100.00;97159.47;5034671;28;20040;-79
2024/02/24 05:18:03;;;;;;;3.90;1.10;;;;;;;2.57;100.00;97167.53;5041429;28;20338;-78
2024/02/24 05:20:30;;;;;;;2.85;1.38;;;;;;;2.39;100.00;97147.47;5037007;28;20029;-80
2024/02/24 05:22:56;;;;;;;7.80;1.48;;;;;;;2.38;100.00;97159.19;5033860;28;20024;-80
2024/02/24 05:25:21;;;;;;;4.18;1.25;;;;;;;2.43;100.00;97174.59;5030956;28;20029;-80
2024/02/24 05:27:46;;;;;;;3.58;1.35;;;;;;;2.60;100.00;97201.84;5034943;28;20089;-80
2024/02/24 05:30:12;;;;;;;2.72;1.35;;;;;;;2.45;100.00;97185.09;5031910;28;20017;-80
2024/02/24 05:32:37;;;;;;;3.05;1.40;;;;;;;2.54;100.00;97207.94;5055814;28;20023;-80
2024/02/24 05:35:03;;;;;;;5.25;1.00;;;;;;;2.47;100.00;97196.41;5025915;28;20336;-79
2024/02/24 05:37:28;;;;;;;2.70;1.23;;;;;;;2.33;100.00;97171.41;5031099;28;20028;-79
2024/02/24 05:39:53;;;;;;;3.42;1.08;;;;;;;2.48;100.00;97198.88;5034598;28;20057;-80
2024/02/24 05:42:19;;;;;;;4.43;1.23;;;;;;;2.39;100.00;97195.50;5047971;28;20021;-80
2024/02/24 05:44:44;;;;;;;2.88;1.10;;;;;;;2.48;100.00;97206.06;5028709;28;20029;-81
2024/02/24 05:47:10;;;;;;;3.03;1.00;;;;;;;2.56;100.00;97209.41;5035253;28;20432;-80
2024/02/24 05:49:35;;;;;;;2.05;1.20;;;;;;;2.61;100.00;97192.81;5032530;28;20088;-80
2024/02/24 05:52:01;;;;;;;2.80;1.20;;;;;;;3.04;100.00;97224.81;5034376;28;20308;-80
2024/02/24 05:54:26;;;;;;;2.75;0.85;;;;;;;3.01;100.00;97201.97;5045862;28;20080;-80
2024/02/24 05:56:51;;;;;;;3.00;0.90;;;;;;;3.31;100.00;97233.00;5049498;28;20028;-81
2024/02/24 05:59:18;;;;;;;1.17;0.80;;;;;;;3.38;100.00;97229.34;5034440;28;20021;-81
2024/02/24 06:01:43;;;;;;;2.25;1.00;;;;;;;3.28;100.00;97211.00;5028766;28;20028;-81
2024/02/24 06:04:08;;;;;;;2.00;0.70;;;;;;;3.45;100.00;97208.00;5039422;28;20017;-80
2024/02/24 06:06:34;;;;;;;1.65;0.80;;;;;;;3.48;100.00;97208.44;5049564;28;20017;-82
2024/02/24 06:08:59;;;;;;;4.50;0.80;;;;;;;3.65;100.00;97222.28;5040739;28;20017;-82
2024/02/24 06:11:24;;;;;;;1.77;0.80;;;;;;;3.55;100.00;97216.47;5036222;28;20030;-79
2024/02/24 06:13:52;;;;;;;2.67;0.80;;;;;;;3.24;100.00;97187.50;5051574;28;20013;-85
2024/02/24 06:16:18;;;;;;;5.57;1.23;;;;;;;3.26;100.00;97186.31;5029150;28;20032;-76
2024/02/24 06:18:43;;;;;;;3.63;0.90;;;;;;;3.42;100.00;97219.91;5049447;28;20021;-76
2024/02/24 06:21:08;;;;;;;1.27;0.60;;;;;;;3.47;100.00;97235.38;5047939;28;20358;-76
2024/02/24 06:23:34;;;;;;;3.95;0.68;;;;;;;3.62;100.00;97254.78;5050780;28;20033;-76
2024/02/24 06:25:59;;;;;;;1.65;1.10;;;;;;;3.56;100.00;97230.66;5050866;28;20033;-76
2024/02/24 06:28:24;;;;;;;1.02;0.75;;;;;;;3.67;100.00;97235.47;5026889;28;20048;-77
2024/02/24 06:30:50;;;;;;;1.38;0.55;;;;;;;3.77;100.00;97257.31;5027383;28;20104;-76
2024/02/24 06:33:15;;;;;;;1.15;0.60;;;;;;;3.79;100.00;97252.59;5048691;28;20060;-74
2024/02/24 06:35:40;;;;;;;3.13;0.70;;;;;;;3.66;100.00;97256.03;5043612;28;20017;-82
2024/02/24 06:38:06;;;;;;;2.83;1.08;;;;;;;3.50;100.00;97237.63;5034306;28;20033;-80
2024/02/24 06:40:31;;;;;;;2.60;0.80;;;;;;;3.71;100.00;97274.97;5031319;28;20033;-74
2024/02/24 06:42:57;;;;;;;1.27;0.75;;;;;;;3.65;100.00;97261.59;5048569;28;20250;-75
2024/02/24 06:45:22;;;;;;;3.60;0.80;;;;;;;3.57;100.00;97253.72;5050425;28;20041;-75
2024/02/24 06:47:47;;;;;;;3.15;1.40;;;;;;;3.73;100.00;97289.00;5031604;28;20043;-85
2024/02/24 06:50:13;;;;;;;2.08;1.20;;;;;;;3.78;100.00;97300.97;5029294;28;20026;-85
2024/02/24 06:52:38;;;;;;;1.70;0.80;;;;;;;3.60;100.00;97280.06;5026958;28;20118;-74
2024/02/24 06:55:04;;;;;;;1.77;0.82;;;;;;;3.62;100.00;97270.84;5028954;28;20025;-74
2024/02/24 06:57:29;;;;;;;2.33;1.00;;;;;;;3.91;100.00;97317.09;5045507;28;20067;-73
2024/02/24 06:59:54;;;;;;;5.80;1.10;;;;;;;3.86;100.00;97312.31;5048448;28;20416;-75
2024/02/24 07:02:20;;;;;;;2.13;1.25;;;;;;;3.78;100.00;97290.25;5045164;28;20032;-73
2024/02/24 07:04:45;;;;;;;3.15;0.93;;;;;;;4.03;100.00;97314.66;5048305;28;20339;-73
2024/02/24 07:07:11;;;;;;;2.53;1.00;;;;;;;4.03;100.00;97312.81;5020540;28;20352;-74
2024/02/24 07:09:36;;;;;;;1.80;0.90;;;;;;;4.00;100.00;97272.25;5034257;28;20020;-73
2024/02/24 07:12:02;;;;;;;3.25;1.50;;;;;;;4.22;100.00;97308.59;5034493;28;20020;-74
2024/02/24 07:14:28;;;;;;;1.25;0.70;;;;;;;4.33;100.00;97321.41;5049932;28;20255;-73
2024/02/24 07:16:53;;;;;;;4.85;1.00;;;;;;;4.30;100.00;97310.28;5042568;28;20025;-75
2024/02/24 07:19:18;;;;;;;4.93;1.00;;;;;;;4.42;100.00;97338.09;5022609;28;20029;-73
2024/02/24 07:21:44;;;;;;;2.92;0.90;;;;;;;4.19;100.00;97290.22;5034708;28;20044;-74
2024/02/24 07:24:09;;;;;;;2.10;1.13;;;;;;;4.51;100.00;97333.41;5039803;28;20029;-74
2024/02/24 07:26:45;;;;;;;6.32;1.10;;;;;;;4.53;100.00;97339.38;5026086;28;20228;-73
2024/02/24 07:29:10;;;;;;;1.25;0.93;;;;;;;4.59;100.00;97346.63;5027586;28;20103;-73
2024/02/24 07:31:36;;;;;;;3.35;1.02;;;;;;;4.57;100.00;97338.78;5030843;28;20116;-73
2024/02/24 07:34:02;;;;;;;1.63;0.90;;;;;;;4.67;100.00;97343.75;5028587;28;20313;-73
2024/02/24 07:36:29;;;;;;;4.03;0.90;;;;;;;4.47;100.00;97319.59;5049428;28;20027;-73
2024/02/24 07:38:56;;;;;;;2.47;0.90;;;;;;;4.73;100.00;97350.16;5043216;28;20287;-80
2024/02/24 07:41:22;;;;;;;2.70;0.88;;;;;;;4.82;100.00;97373.03;5026808;28;20365;-78
2024/02/24 07:43:47;;;;;;;1.85;0.85;;;;;;;4.91;100.00;97387.09;5024561;28;20026;-77
2024/02/24 07:46:32;;;;;;;4.78;1.00;;;;;;;4.85;100.00;97388.75;5021569;28;20313;-78
2024/02/24 07:48:58;;;;;;;5.78;1.70;;;;;;;4.76;100.00;97379.22;5036191;28;20013;-79
2024/02/24 07:51:24;;;;;;;4.60;1.40;;;;;;;4.61;100.00;97349.91;5049963;28;20220;-78
2024/02/24 07:53:50;;;;;;;2.17;0.63;;;;;;;4.89;100.00;97402.56;5033329;28;20021;-78
2024/02/24 07:56:16;;;;;;;3.08;1.00;;;;;;;4.78;100.00;97387.88;5050502;28;20309;-79
2024/02/24 07:58:41;;;;;;;2.47;1.00;;;;;;;4.80;100.00;97388.53;5033927;28;20064;-79
2024/02/24 08:01:06;;;;;;;1.50;0.90;;;;;;;4.81;100.00;97388.31;5029028;28;20026;-76
2024/02/24 08:03:32;;;;;;;3.60;1.33;;;;;;;4.86;100.00;97385.03;5049741;28;20056;-78
2024/02/24 08:05:57;;;;;;;2.30;1.10;;;;;;;4.93;100.00;97385.88;5033645;28;20082;-83
2024/02/24 08:08:25;;;;;;;1.00;0.60;;;;;;;5.07;100.00;97426.94;5050678;23;20049;-54
2024/02/24 08:10:51;;;;;;;1.57;0.60;;;;;;;5.08;100.00;97422.38;5057539;28;20020;-54
2024/02/24 08:13:16;;;;;;;2.30;0.85;;;;;;;5.14;100.00;97429.66;5049317;28;20726;-54
2024/02/24 08:15:42;;;;;;;1.70;0.80;;;;;;;5.12;100.00;97435.19;5038329;28;20048;-54
2024/02/24 08:18:09;;;;;;;2.35;0.98;;;;;;;5.09;100.00;97432.09;5016516;28;20020;-54
2024/02/24 08:20:34;;;;;;;4.25;1.48;;;;;;;5.07;100.00;97434.16;5032193;28;20152;-54
2024/02/24 08:23:00;;;;;;;5.82;1.83;;;;;;;5.23;100.00;97441.81;5009451;28;20121;-54
2024/02/24 08:25:25;;;;;;;2.92;1.25;;;;;;;5.42;100.00;97438.38;5020278;28;20057;-55
2024/02/24 08:27:51;;;;;;;2.65;0.90;;;;;;;5.51;100.00;97448.91;5024909;28;20030;-55
2024/02/24 08:30:18;;;;;;;1.75;0.80;;;;;;;5.57;100.00;97467.66;5030021;28;20021;-55
2024/02/24 08:32:43;;;;;;;1.65;0.80;;;;;;;5.67;100.00;97453.88;5026541;28;20036;-54
2024/02/24 08:35:09;;;;;;;1.05;0.70;;;;;;;5.81;100.00;97457.38;5028849;28;20037;-54
2024/02/24 08:37:34;;;;;;;1.65;0.95;;;;;;;5.83;100.00;97472.22;5020424;28;20112;-54
2024/02/24 08:39:59;;;;;;;1.00;0.50;;;;;;;5.80;100.00;97483.38;5022367;28;20060;-54
2024/02/24 08:42:25;;;;;;;1.35;0.57;;;;;;;5.98;100.00;97480.13;5004292;28;20117;-55
2024/02/24 08:44:50;;;;;;;1.17;0.45;;;;;;;6.22;100.00;97483.22;5018645;28;20022;-54
2024/02/24 08:47:16;;;;;;;1.27;0.52;;;;;;;8.03;100.00;97480.34;5022429;28;20021;-54
2024/02/24 08:49:41;;;;;;;1.60;0.80;;;;;;;11.86;100.00;97466.72;5025308;28;20108;-55
2024/02/24 08:52:07;;;;;;;1.35;0.40;;;;;;;14.22;98.02;97465.16;5024287;28;20141;-55
2024/02/24 08:54:32;;;;;;;0.77;0.45;;;;;;;15.40;86.06;97479.50;5018072;28;20017;-56
2024/02/24 08:56:58;;;;;;;0.70;0.47;;;;;;;17.96;72.68;97455.44;5017664;28;20579;-55
2024/02/24 08:59:24;;;;;;;0.65;0.40;;;;;;;17.69;64.97;97475.81;5029028;28;20033;-54
2024/02/24 09:01:53;;;;;;;0.30;0.17;;;;;;;18.18;63.30;97485.09;5028671;28;20037;-55
2024/02/24 09:04:19;;;;;;;4.55;0.77;;;;;;;17.33;60.57;97488.03;5021101;28;20089;-55
2024/02/24 09:06:45;;;;;;;1.05;0.30;;;;;;;15.94;66.10;97487.31;5021950;28;20517;-54
2024/02/24 09:09:14;;;;;;;0.63;0.20;;;;;;;16.01;66.43;97482.44;5029742;28;20476;-54
2024/02/24 09:11:40;;;;;;;;;;;;;;;16.03;65.06;97493.06;5019720;28;20029;-55
2024/02/24 09:14:06;;;;;;;0.43;0.20;;;;;;;14.60;67.43;97493.25;5006476;28;20056;-54
2024/02/24 09:16:32;;;;;;;1.75;0.20;;;;;;;14.26;71.75;97507.09;5013297;28;20091;-54
2024/02/24 09:18:57;;;;;;;0.35;0.20;;;;;;;14.84;69.78;97512.72;4998877;28;20437;-54
2024/02/24 09:21:23;;;;;;;0.90;0.20;;;;;;;17.53;62.07;97493.41;5027772;28;20097;-54
2024/02/24 09:23:50;;;;;;;0.17;0.10;;;;;;;17.75;64.57;97499.31;5025174;28;20040;-54
2024/02/24 09:26:16;;;;;;;0.00;0.00;;;;;;;19.30;65.30;97499.69;5023612;28;20376;-54
2024/02/24 09:28:41;;;;;;;0.32;0.25;;;;;;;17.98;66.52;97488.00;5023809;28;20021;-54
2024/02/24 09:31:09;;;;;;;0.28;0.20;;;;;;;17.24;72.01;97505.00;5029190;28;20492;-55
2024/02/24 09:33:35;;;;;;;0.82;0.40;;;;;;;17.14;74.89;97507.75;5022570;28;20025;-55
2024/02/24 09:36:00;;;;;;;0.60;0.25;;;;;;;17.29;70.60;97517.81;5005063;28;20025;-55
2024/02/24 09:38:26;;;;;;;1.10;0.25;;;;;;;14.07;71.95;97511.25;5018139;28;20029;-55
2024/02/24 09:40:51;;;;;;;0.30;0.13;;;;;;;13.30;78.76;97521.28;5017942;28;20030;-54
2024/02/24 09:43:17;;;;;;;0.50;0.38;;;;;;;12.23;100.00;97540.28;5020237;28;20748;-54
2024/02/24 09:45:46;;;;;;;0.25;0.25;;;;;;;11.31;100.00;97535.00;5024810;28;20035;-54
2024/02/24 09:48:13;;;;;;;0.77;0.10;;;;;;;10.78;100.00;97542.25;5021330;28;20519;-55
2024/02/24 09:50:39;;;;;;;0.10;0.10;;;;;;;10.01;100.00;97542.25;5019692;28;20032;-54
2024/02/24 09:53:04;;;;;;;0.22;0.20;;;;;;;13.41;100.00;97533.09;5018073;28;20028;-56
2024/02/24 09:55:30;;;;;;;0.32;0.10;;;;;;;15.15;93.95;97538.25;5026957;28;20033;-54
2024/02/24 09:57:56;;;;;;;0.45;0.10;;;;;;;14.16;89.51;97540.47;5023218;28;20034;-54
2024/02/24 10:00:23;;;;;;;0.10;0.10;;;;;;;13.89;88.48;97536.94;5007349;28;20604;-54
2024/02/24 10:02:48;;;;;;;0.08;0.03;;;;;;;12.72;92.80;97542.44;5023966;28;20058;-55
2024/02/24 10:05:15;;;;;;;0.52;0.10;;;;;;;10.48;100.00;97555.88;5027076;28;20022;-60
2024/02/24 10:07:41;;;;;;;0.65;0.10;;;;;;;9.54;100.00;97559.09;5020565;28;20022;-61
2024/02/24 10:10:07;;;;;;;0.50;0.30;;;;;;;12.96;100.00;97542.25;5027502;28;20038;-62
2024/02/24 10:12:32;;;;;;;0.47;0.20;;;;;;;16.35;79.10;97528.31;5022492;28;20376;-62
2024/02/24 10:14:59;;;;;;;0.30;0.10;;;;;;;20.26;65.34;97518.78;5017310;28;20030;-62
2024/02/24 10:17:28;;;;;;;0.10;0.00;;;;;;;22.91;56.29;97525.56;5028183;28;20083;-57
2024/02/24 10:19:55;;;;;;;0.20;0.10;;;;;;;21.46;54.06;97522.81;5011408;28;20500;-54
2024/02/24 10:22:21;;;;;;;0.28;0.05;;;;;;;24.30;51.51;97528.03;5028961;28;20683;-56
2024/02/24 10:24:46;;;;;;;0.00;0.00;;;;;;;21.47;48.59;97540.13;5029443;28;20029;-61
2024/02/24 10:27:15;;;;;;;0.30;0.10;;;;;;;24.06;48.58;97520.22;5021235;28;20457;-63
2024/02/24 10:29:41;;;;;;;0.38;0.10;;;;;;;22.91;48.42;97536.63;5023504;28;20036;-62
2024/02/24 10:32:06;;;;;;;1.10;0.15;;;;;;;20.51;51.47;97541.47;5011711;28;20705;-61
2024/02/24 10:34:32;;;;;;;0.08;0.00;;;;;;;17.49;55.40;97557.94;5012650;28;20022;-61
2024/02/24 10:37:03;;;;;;;0.08;0.00;;;;;;;16.47;58.34;97558.88;5027464;28;20443;-61
2024/02/24 10:39:34;;;;;;;0.10;0.10;;;;;;;17.87;57.37;97550.19;5019862;28;20033;-61
2024/02/24 10:41:59;;;;;;;0.47;0.30;;;;;;;17.90;58.30;97557.81;5019953;28;20079;-62
2024/02/24 10:44:26;;;;;;;0.40;0.10;;;;;;;19.52;55.19;97553.22;5019840;28;20104;-62
2024/02/24 10:46:51;;;;;;;0.08;0.00;;;;;;;21.60;49.91;97536.56;5027574;28;20096;-63
2024/02/24 10:49:17;;;;;;;0.10;0.10;;;;;;;21.79;47.99;97541.94;5022808;28;20025;-63
2024/02/24 10:51:46;;;;;;;0.10;0.00;;;;;;;24.16;46.04;97553.09;5023156;28;20029;-63
2024/02/24 10:54:18;;;;;;;0.10;0.10;;;;;;;24.86;42.92;97551.19;5032195;28;20052;-64
2024/02/24 10:56:46;;;;;;;1.45;0.00;;;;;;;23.16;44.11;97550.88;5026750;28;20088;-63
2024/02/24 10:59:11;;;;;;;0.30;0.10;;;;;;;23.22;43.24;97548.84;5009949;28;20477;-63
2024/02/24 11:01:45;;;;;;;0.88;0.00;;;;;;;22.40;43.98;97543.38;5028283;28;20029;-59
2024/02/24 11:04:12;;;;;;;0.00;0.00;;;;;;;23.87;43.30;97552.84;5029329;28;20044;-59
2024/02/24 11:06:51;;;;;;;0.08;0.00;;;;;;;24.33;41.59;97535.69;5069129;23;20052;-72
2024/02/24 11:09:25;;;;;;;0.00;0.00;;;;;;;23.82;42.09;97559.34;5077473;28;20017;-73
2024/02/24 11:11:50;;;;;;;0.10;0.08;;;;;;;23.64;42.63;97550.16;5076039;28;20277;-72
2024/02/24 11:14:16;;;;;;;0.10;0.00;;;;;;;24.03;42.07;97538.25;5061629;28;20036;-73
2024/02/24 11:16:43;;;;;;;0.15;0.05;;;;;;;23.73;41.91;97556.53;5085866;28;20351;-73
2024/02/24 11:19:11;;;;;;;0.45;0.10;;;;;;;21.84;43.22;97548.16;5075503;28;20050;-73
2024/02/24 11:21:59;;;;;;;0.35;0.22;;;;;;;20.89;44.32;97550.50;5077495;28;20299;-73
2024/02/24 11:24:32;;;;;;;0.93;0.20;;;;;;;20.97;44.34;97541.53;5064066;28;20024;-73
2024/02/24 11:26:58;;;;;;;0.10;0.10;;;;;;;21.59;44.28;97526.69;5076008;28;20151;-73
2024/02/24 11:29:29;;;;;;;0.20;0.05;;;;;;;23.03;42.72;97529.72;5062607;28;20028;-73
2024/02/24 11:32:13;;;;;;;0.47;0.08;;;;;;;24.37;42.07;97541.41;5082804;28;20074;-74